Sanford, California
Current Conditions -  °F | °C
As of 6:47 PM on Tuesday 25 Nov 2014 (Local Time) from KCQT Reporting Station
Clear Clear  
Wind Chill: 64°   Ceiling: Unl
Heat Index: 64°   Visibility: 10mi
Dew Point: 42°   Wind: 0mph
Humidity: 45%   Direction: NA
Pressure: 30.27"   Gusts: NA
Location:  34.0664°N, 118.31°W
Report Text: KCQT 260247Z AUTO 00000KT 10SM CLR 18/06 A3027 RMK AO2 SLP249 T01780056 53005
Loading
Personal Weather Stations






























Interactive Weather Map New forecast layout! Learn more

10-Day Weather Forecast

Advertisements
Track Severe Weather on mobile